メインページ
METAR-TAF:

METAR-TAF

空港 :

ソルトレイクシティ, ユタ州, アメリカ合衆国

ソルトレイクシティ国際空港

緯度: 40-46-41N, 経度: 111-58-10W, 海抜: 1288m

現時点の気象観測

当レポートは24分前の22:54(UTC)に作成
西/北西の風 11kt
気温 21°C
湿度 30%
気圧 1023 hPa
視程: 16.1km
高度7000ftの雲はほとんどない

METAR: KSLC 272254Z 30011KT 10SM FEW070 21/03 A3020 RMK AO2 SLP194 T02110028

時間: 17:18 (23:18 UTC)

予報

当レポートは2時間16分前の21:02(UTC)に作成
予報は27日の 21時(UTC)から 28日の 24時(UTC)まで有効
北/北西の風 11kt
視程: 10km
高度9000ftの雲はほとんどない
28日の 0400時(UTC)から
南/南東の風 4kt
視程: 10km
晴天
28日の 1800時(UTC)から
北西の風 8kt
視程: 10km
晴天

TAF: KSLC 272102Z 2721/2824 33011KT P6SM FEW090 FM280400 15004KT P6SM SKC FM281800 32008KT P6SM SKC

4,000以上の空港の気象観測と天気予報(METAR報とTAF報)

利用可能な観測所は地図上に黄色い丸と赤い丸で示す。

丸の上にカーソルを重ねると観測所名を参照できる。

次にクリックすると気象観測と天気予報を参照できる。

マップの切り替え:黒色「×」印の緑ボタンをクリックして拡大、「-」印の緑ボタンをクリックして縮小、緑色の三角印をクリックして隣りの地図に切り替え


METAR-TAF: